createdAt,value
2019-05-29T00:00:58.522Z,98.00
2019-05-29T00:03:27.062Z,98.10
2019-05-29T00:05:55.519Z,98.20
2019-05-29T00:08:24.031Z,98.70
2019-05-29T00:10:52.547Z,98.40
2019-05-29T00:13:20.989Z,98.60
2019-05-29T00:15:49.434Z,98.50
2019-05-29T00:18:18.641Z,98.90
2019-05-29T00:20:47.261Z,98.80
2019-05-29T00:23:15.849Z,98.80
2019-05-29T00:25:44.382Z,98.30
2019-05-29T00:28:12.898Z,98.80
2019-05-29T00:30:41.392Z,99.00
2019-05-29T00:33:10.085Z,98.70
2019-05-29T00:35:38.706Z,98.90
2019-05-29T00:38:08.422Z,98.70
2019-05-29T00:40:37.211Z,98.50
2019-05-29T00:43:05.666Z,98.50
2019-05-29T00:45:34.119Z,98.60
2019-05-29T00:48:02.615Z,98.20
2019-05-29T00:50:31.075Z,98.10
2019-05-29T00:52:59.543Z,98.40
2019-05-29T00:55:28.130Z,98.40
2019-05-29T00:57:56.641Z,98.20
2019-05-29T01:00:25.097Z,98.10
2019-05-29T01:02:53.641Z,98.20
2019-05-29T01:05:22.169Z,98.20
2019-05-29T01:07:50.677Z,98.30
2019-05-29T01:10:20.754Z,98.40
2019-05-29T01:12:49.383Z,98.40
2019-05-29T01:15:19.454Z,98.50
2019-05-29T01:17:48.103Z,98.70
2019-05-29T01:20:18.078Z,98.80
2019-05-29T01:22:46.624Z,98.60
2019-05-29T01:25:16.479Z,98.60
2019-05-29T01:27:45.095Z,98.60
2019-05-29T01:30:15.033Z,98.50
2019-05-29T01:32:43.681Z,98.30
2019-05-29T01:35:13.670Z,98.30
2019-05-29T01:37:42.268Z,98.20
2019-05-29T01:40:20.138Z,98.10
2019-05-29T01:42:41.058Z,98.50
2019-05-29T01:45:09.906Z,98.50
2019-05-29T01:47:38.361Z,98.10
2019-05-29T01:50:07.750Z,98.20
2019-05-29T01:52:36.250Z,98.00
2019-05-29T01:55:06.548Z,98.00
2019-05-29T01:57:35.067Z,98.10
2019-05-29T02:00:07.330Z,98.10
2019-05-29T02:02:35.882Z,98.10
2019-05-29T02:05:06.127Z,98.10
2019-05-29T02:07:34.573Z,98.00
2019-05-29T02:10:03.702Z,98.00
2019-05-29T02:12:32.440Z,98.00
2019-05-29T02:15:00.894Z,98.00
2019-05-29T02:17:29.339Z,98.00
2019-05-29T02:19:57.839Z,97.90
2019-05-29T02:22:27.115Z,97.90
2019-05-29T02:24:55.722Z,97.90
2019-05-29T02:27:25.492Z,97.90
2019-05-29T02:29:54.062Z,98.00
2019-05-29T02:32:23.582Z,98.20
2019-05-29T02:34:52.280Z,97.90
2019-05-29T02:37:22.185Z,97.80
2019-05-29T02:39:50.801Z,97.90
2019-05-29T02:42:20.878Z,98.00
2019-05-29T02:44:49.556Z,97.90
2019-05-29T02:47:21.564Z,97.80
2019-05-29T02:49:49.971Z,98.20
2019-05-29T02:52:19.985Z,97.90
2019-05-29T02:54:48.649Z,97.90
2019-05-29T02:57:17.232Z,97.90
2019-05-29T02:59:45.764Z,97.90
2019-05-29T03:02:14.288Z,97.70
2019-05-29T03:04:42.853Z,97.70
2019-05-29T03:07:11.364Z,97.90
2019-05-29T03:09:43.132Z,98.00
2019-05-29T03:12:11.581Z,98.00
2019-05-29T03:14:40.271Z,98.10
2019-05-29T03:17:08.764Z,98.00
2019-05-29T03:19:37.288Z,98.00
2019-05-29T03:22:05.884Z,98.10
2019-05-29T03:24:35.186Z,98.00
2019-05-29T03:27:03.748Z,98.10
2019-05-29T03:29:34.109Z,98.00
2019-05-29T03:32:02.440Z,98.00
2019-05-29T03:34:37.213Z,98.00
2019-05-29T03:37:01.202Z,98.30
2019-05-29T03:39:30.326Z,98.10
2019-05-29T03:41:58.906Z,98.00
2019-05-29T03:44:28.695Z,98.00
2019-05-29T03:46:57.746Z,98.00
2019-05-29T03:49:26.865Z,97.80
2019-05-29T03:51:55.545Z,97.90
2019-05-29T03:54:24.003Z,97.80
2019-05-29T03:56:52.711Z,97.70
2019-05-29T03:59:21.156Z,97.80
2019-05-29T04:01:49.724Z,97.70
2019-05-29T04:04:18.182Z,97.70
2019-05-29T04:06:47.482Z,97.70
2019-05-29T04:09:16.201Z,97.30
2019-05-29T04:11:44.647Z,97.30
2019-05-29T04:14:13.404Z,97.30
2019-05-29T04:16:59.031Z,97.30
2019-05-29T04:19:13.793Z,97.30
2019-05-29T04:21:43.452Z,97.10
2019-05-29T04:24:13.602Z,97.10
2019-05-29T04:26:42.517Z,97.40
2019-05-29T04:29:11.243Z,97.30
2019-05-29T04:31:39.726Z,97.30
2019-05-29T04:34:08.309Z,97.10
2019-05-29T04:36:37.377Z,96.90
2019-05-29T04:39:07.405Z,97.20
2019-05-29T04:41:37.146Z,97.10
2019-05-29T04:44:06.096Z,97.40
2019-05-29T04:46:36.211Z,97.20
2019-05-29T04:49:04.756Z,97.10
2019-05-29T04:51:33.302Z,97.00
2019-05-29T04:54:01.822Z,97.00
2019-05-29T04:56:30.753Z,97.20
2019-05-29T04:58:59.350Z,97.00
2019-05-29T05:01:28.884Z,96.70
2019-05-29T05:03:57.635Z,96.50
2019-05-29T05:06:26.124Z,96.30
2019-05-29T05:08:54.655Z,96.30
2019-05-29T05:11:23.147Z,95.90
2019-05-29T05:13:51.603Z,95.80
2019-05-29T05:16:20.118Z,95.80
2019-05-29T05:18:48.570Z,95.50
2019-05-29T05:21:17.015Z,95.60
2019-05-29T05:23:45.495Z,95.30
2019-05-29T05:26:14.250Z,95.10
2019-05-29T05:28:45.213Z,94.60
2019-05-29T05:31:12.901Z,94.50
2019-05-29T05:33:41.461Z,94.60
2019-05-29T05:36:09.952Z,94.80
2019-05-29T05:38:38.803Z,94.60
2019-05-29T05:41:07.371Z,94.10
2019-05-29T05:43:36.905Z,94.00
2019-05-29T05:46:05.523Z,94.00
2019-05-29T05:48:35.042Z,93.80
2019-05-29T05:51:03.702Z,93.20
2019-05-29T05:53:33.368Z,93.00
2019-05-29T05:56:02.013Z,92.40
2019-05-29T05:58:31.659Z,92.30
2019-05-29T06:01:00.404Z,91.80
2019-05-29T06:03:28.926Z,91.80
2019-05-29T06:05:57.424Z,91.60
2019-05-29T06:08:26.023Z,91.70
2019-05-29T06:10:54.472Z,92.10
2019-05-29T06:13:22.921Z,91.60
2019-05-29T06:15:51.434Z,91.90
2019-05-29T06:18:21.797Z,91.30
2019-05-29T06:20:50.052Z,91.80
2019-05-29T06:23:18.541Z,91.40
2019-05-29T06:25:48.903Z,91.40
2019-05-29T06:28:16.621Z,91.20
2019-05-29T06:30:45.223Z,90.80
2019-05-29T06:33:13.746Z,90.80
2019-05-29T06:35:42.209Z,90.60
2019-05-29T06:38:10.711Z,89.90
2019-05-29T06:40:42.199Z,90.20
2019-05-29T06:43:22.267Z,90.00
2019-05-29T06:45:51.327Z,90.30
2019-05-29T06:48:41.942Z,90.20
2019-05-29T06:50:57.466Z,90.20
2019-05-29T06:53:26.062Z,90.10
2019-05-29T06:55:56.431Z,90.30
2019-05-29T06:58:25.040Z,89.40
2019-05-29T07:00:53.513Z,88.60
2019-05-29T07:03:22.029Z,88.60
2019-05-29T07:05:52.554Z,88.40
2019-05-29T07:08:35.209Z,88.00
2019-05-29T07:10:50.928Z,87.50
2019-05-29T07:13:19.484Z,88.30
2019-05-29T07:15:47.996Z,88.70
2019-05-29T07:18:16.527Z,87.40
2019-05-29T07:20:44.985Z,87.40
2019-05-29T07:23:13.552Z,89.50
2019-05-29T07:25:42.967Z,87.10
2019-05-29T07:28:11.817Z,87.10
2019-05-29T07:30:44.051Z,86.50
2019-05-29T07:33:10.459Z,85.60
2019-05-29T07:35:39.294Z,85.30
2019-05-29T07:38:08.448Z,86.70
2019-05-29T07:40:38.409Z,86.50
2019-05-29T07:43:06.460Z,85.80
2019-05-29T07:45:34.915Z,85.30
2019-05-29T07:48:03.746Z,85.20
2019-05-29T07:50:32.199Z,85.10
2019-05-29T07:53:00.698Z,83.90
2019-05-29T07:55:29.237Z,82.00
2019-05-29T07:57:57.810Z,82.20
2019-05-29T08:00:35.338Z,82.10
2019-05-29T08:02:56.442Z,82.40
2019-05-29T08:05:24.931Z,82.40
2019-05-29T08:07:53.408Z,82.00
2019-05-29T08:10:22.526Z,81.50
2019-05-29T08:12:55.287Z,80.80
2019-05-29T08:15:21.161Z,80.40
2019-05-29T08:17:50.250Z,80.40
2019-05-29T08:20:18.992Z,80.00
2019-05-29T08:22:48.541Z,79.60
2019-05-29T08:25:18.119Z,78.40
2019-05-29T08:27:46.687Z,77.80
2019-05-29T08:30:15.808Z,75.50
2019-05-29T08:32:45.361Z,77.20
2019-05-29T08:35:14.563Z,77.90
2019-05-29T08:37:43.021Z,75.80
2019-05-29T08:40:11.908Z,76.00
2019-05-29T08:42:41.093Z,74.00
2019-05-29T08:45:10.255Z,75.10
2019-05-29T08:47:38.774Z,73.60
2019-05-29T08:50:18.067Z,72.80
2019-05-29T08:52:37.975Z,72.90
2019-05-29T08:55:07.916Z,75.30
2019-05-29T08:57:36.363Z,75.00
2019-05-29T09:00:13.487Z,74.30
2019-05-29T09:02:42.648Z,73.70
2019-05-29T09:05:12.280Z,70.80
2019-05-29T09:07:40.806Z,71.20
2019-05-29T09:10:09.874Z,72.40
2019-05-29T09:12:38.413Z,71.60
2019-05-29T09:15:10.750Z,72.00
2019-05-29T09:17:39.377Z,72.50
2019-05-29T09:20:25.413Z,71.20
2019-05-29T09:22:38.570Z,70.10
2019-05-29T09:25:07.764Z,71.20
2019-05-29T09:27:36.251Z,69.20
2019-05-29T09:30:06.939Z,69.30
2019-05-29T09:32:49.473Z,68.30
2019-05-29T09:35:07.382Z,67.10
2019-05-29T09:37:35.841Z,68.00
2019-05-29T09:40:07.362Z,67.70
2019-05-29T09:42:35.860Z,67.60
2019-05-29T09:45:06.313Z,67.60
2019-05-29T09:47:34.767Z,68.00
2019-05-29T09:50:23.995Z,69.80
2019-05-29T09:52:55.324Z,69.40
2019-05-29T09:55:23.506Z,67.70
2019-05-29T09:57:53.519Z,64.60
2019-05-29T10:00:21.820Z,65.40
2019-05-29T10:02:50.394Z,63.90
2019-05-29T10:05:19.092Z,65.10
2019-05-29T10:07:47.729Z,65.90
2019-05-29T10:10:17.071Z,64.80
2019-05-29T10:12:45.558Z,64.90
2019-05-29T10:15:14.890Z,61.90
2019-05-29T10:17:43.565Z,62.70
2019-05-29T10:20:12.884Z,63.90
2019-05-29T10:22:41.471Z,65.10
2019-05-29T10:25:12.464Z,64.90
2019-05-29T10:27:40.914Z,63.10
2019-05-29T10:30:10.299Z,64.60
2019-05-29T10:32:38.837Z,62.10
2019-05-29T10:35:07.490Z,62.20
2019-05-29T10:37:36.029Z,59.80
2019-05-29T10:40:09.782Z,58.90
2019-05-29T10:42:38.466Z,58.90
2019-05-29T10:45:11.890Z,57.20
2019-05-29T10:47:40.331Z,58.00
2019-05-29T10:50:10.166Z,58.80
2019-05-29T10:52:39.007Z,57.60
2019-05-29T10:55:09.392Z,57.00
2019-05-29T10:57:37.124Z,57.50
2019-05-29T11:00:07.482Z,56.40
2019-05-29T11:02:35.957Z,55.30
2019-05-29T11:05:07.227Z,55.00
2019-05-29T11:07:35.760Z,57.50
2019-05-29T11:10:05.944Z,55.00
2019-05-29T11:12:34.443Z,52.70
2019-05-29T11:15:20.313Z,52.70
2019-05-29T11:17:34.195Z,53.30
2019-05-29T11:20:04.191Z,51.90
2019-05-29T11:22:32.647Z,51.40
2019-05-29T11:25:21.082Z,52.80
2019-05-29T11:27:31.398Z,51.40
2019-05-29T11:30:00.002Z,51.30
2019-05-29T11:32:28.556Z,51.30
2019-05-29T11:34:57.537Z,53.70
2019-05-29T11:37:26.216Z,52.30
2019-05-29T11:39:54.862Z,50.60
2019-05-29T11:42:27.582Z,50.60
2019-05-29T11:44:55.141Z,50.40
2019-05-29T11:47:23.794Z,50.10
2019-05-29T11:49:53.141Z,49.70
2019-05-29T11:52:25.018Z,49.60
2019-05-29T11:54:53.641Z,50.10
2019-05-29T11:57:21.425Z,47.80
2019-05-29T11:59:49.911Z,49.60
2019-05-29T12:02:18.418Z,50.50
2019-05-29T12:04:46.866Z,48.50
2019-05-29T12:07:15.316Z,49.90
2019-05-29T12:09:43.812Z,50.70
2019-05-29T12:12:12.325Z,49.50
2019-05-29T12:14:58.935Z,51.20
2019-05-29T12:17:10.998Z,48.10
2019-05-29T12:19:39.548Z,44.50
2019-05-29T12:22:08.071Z,45.60
2019-05-29T12:24:36.598Z,42.20
2019-05-29T12:27:05.278Z,43.90
2019-05-29T12:29:33.783Z,43.40
2019-05-29T12:32:07.044Z,43.80
2019-05-29T12:34:32.496Z,45.60
2019-05-29T12:37:01.906Z,45.00
2019-05-29T12:39:30.547Z,42.90
2019-05-29T12:41:59.847Z,42.80
2019-05-29T12:44:28.455Z,44.20
2019-05-29T12:46:57.719Z,43.20
2019-05-29T12:49:26.323Z,41.30
2019-05-29T12:51:55.393Z,43.30
2019-05-29T12:54:24.057Z,40.10
2019-05-29T12:56:53.949Z,41.10
2019-05-29T12:59:22.673Z,43.00
2019-05-29T13:01:51.124Z,40.10
2019-05-29T13:04:19.612Z,41.90
2019-05-29T13:06:48.062Z,40.50
2019-05-29T13:09:16.583Z,40.90
2019-05-29T13:11:45.047Z,44.30
2019-05-29T13:14:13.581Z,39.30
2019-05-29T13:16:42.150Z,39.20
2019-05-29T13:19:10.714Z,39.50
2019-05-29T13:21:39.238Z,40.90
2019-05-29T13:24:11.369Z,38.70
2019-05-29T13:26:37.148Z,39.10
2019-05-29T13:29:06.138Z,39.20
2019-05-29T13:31:34.858Z,41.80
2019-05-29T13:34:04.387Z,39.00
2019-05-29T13:36:33.156Z,37.40
2019-05-29T13:39:02.403Z,37.90
2019-05-29T13:41:31.020Z,38.40
2019-05-29T13:44:00.508Z,36.70
2019-05-29T13:46:29.481Z,35.90
2019-05-29T13:48:58.878Z,34.10
2019-05-29T13:51:28.201Z,38.00
2019-05-29T13:54:03.659Z,36.80
2019-05-29T13:56:26.942Z,36.90
2019-05-29T13:58:55.533Z,40.20
2019-05-29T14:01:24.005Z,37.10
2019-05-29T14:03:52.519Z,35.80
2019-05-29T14:06:21.012Z,34.40
2019-05-29T14:08:49.632Z,35.70
2019-05-29T14:11:18.078Z,39.20
2019-05-29T14:13:46.550Z,35.10
2019-05-29T14:16:15.115Z,35.50
2019-05-29T14:18:43.668Z,35.60
2019-05-29T14:21:13.540Z,34.20
2019-05-29T14:23:42.223Z,33.00
2019-05-29T14:26:10.720Z,37.40
2019-05-29T14:28:39.247Z,36.80
2019-05-29T14:31:08.403Z,32.20
2019-05-29T14:33:37.030Z,34.10
2019-05-29T14:36:06.103Z,35.20
2019-05-29T14:38:35.859Z,33.00
2019-05-29T14:41:05.620Z,35.50
2019-05-29T14:43:34.268Z,37.20
2019-05-29T14:46:03.838Z,37.60
2019-05-29T14:48:32.551Z,42.30
2019-05-29T14:51:03.187Z,40.00
2019-05-29T14:53:30.549Z,37.20
2019-05-29T14:55:59.002Z,37.90
2019-05-29T14:58:27.585Z,35.70
2019-05-29T15:00:56.111Z,33.90
2019-05-29T15:03:24.566Z,33.70
2019-05-29T15:05:53.056Z,35.50
2019-05-29T15:08:21.511Z,35.00
2019-05-29T15:10:50.032Z,33.60
2019-05-29T15:13:18.555Z,33.80
2019-05-29T15:15:47.019Z,30.70
2019-05-29T15:18:18.787Z,31.60
2019-05-29T15:20:44.905Z,31.00
2019-05-29T15:23:13.547Z,33.90
2019-05-29T15:25:42.327Z,35.70
2019-05-29T15:28:13.670Z,35.50
2019-05-29T15:30:40.227Z,35.80
2019-05-29T15:33:08.689Z,33.60
2019-05-29T15:35:37.250Z,33.00
2019-05-29T15:38:06.674Z,35.70
2019-05-29T15:40:35.210Z,35.50
2019-05-29T15:43:03.881Z,35.50
2019-05-29T15:45:32.405Z,36.50
2019-05-29T15:48:00.963Z,36.10
2019-05-29T15:50:29.518Z,33.70
2019-05-29T15:52:58.118Z,34.30
2019-05-29T15:55:34.009Z,33.80
2019-05-29T15:57:56.067Z,37.00
2019-05-29T16:00:24.895Z,33.00
2019-05-29T16:02:53.393Z,32.80
2019-05-29T16:05:22.786Z,33.60
2019-05-29T16:07:51.300Z,32.30
2019-05-29T16:10:20.948Z,33.70
2019-05-29T16:12:49.740Z,33.60
2019-05-29T16:15:19.453Z,32.50
2019-05-29T16:17:48.154Z,33.20
2019-05-29T16:20:18.602Z,34.40
2019-05-29T16:22:47.720Z,35.00
2019-05-29T16:25:17.006Z,35.90
2019-05-29T16:27:45.560Z,36.50
2019-05-29T16:30:15.560Z,38.20
2019-05-29T16:32:43.599Z,37.80
2019-05-29T16:35:13.070Z,38.60
2019-05-29T16:37:41.741Z,39.80
2019-05-29T16:40:11.905Z,41.90
2019-05-29T16:42:40.532Z,40.90
2019-05-29T16:45:10.076Z,42.30
2019-05-29T16:47:38.895Z,38.50
2019-05-29T16:50:08.193Z,41.70
2019-05-29T16:52:37.085Z,39.00
2019-05-29T16:55:06.883Z,37.20
2019-05-29T16:57:35.555Z,39.70
2019-05-29T17:00:07.101Z,37.80
2019-05-29T17:02:35.679Z,39.50
2019-05-29T17:05:06.193Z,37.40
2019-05-29T17:07:34.724Z,37.30
2019-05-29T17:10:04.753Z,38.10
2019-05-29T17:12:33.271Z,40.20
2019-05-29T17:15:01.928Z,37.10
2019-05-29T17:17:30.737Z,37.70
2019-05-29T17:19:59.436Z,38.30
2019-05-29T17:22:27.897Z,37.40
2019-05-29T17:24:56.346Z,39.50
2019-05-29T17:27:25.091Z,36.40
2019-05-29T17:29:53.830Z,37.70
2019-05-29T17:32:23.198Z,40.50
2019-05-29T17:34:51.917Z,36.30
2019-05-29T17:37:21.061Z,35.80
2019-05-29T17:39:49.759Z,40.20
2019-05-29T17:42:18.275Z,39.90
2019-05-29T17:44:47.002Z,39.20
2019-05-29T17:47:15.731Z,39.10
2019-05-29T17:49:44.333Z,36.20
2019-05-29T17:52:12.830Z,36.10
2019-05-29T17:54:41.406Z,36.40
2019-05-29T17:57:10.162Z,35.60
2019-05-29T17:59:38.618Z,36.20
2019-05-29T18:02:07.085Z,37.60
2019-05-29T18:04:35.681Z,38.80
2019-05-29T18:07:04.209Z,38.80
2019-05-29T18:09:32.816Z,40.00
2019-05-29T18:12:01.315Z,41.10
2019-05-29T18:14:29.768Z,42.00
2019-05-29T18:16:58.275Z,42.10
2019-05-29T18:19:27.984Z,42.10
2019-05-29T18:21:56.947Z,43.10
2019-05-29T18:24:26.087Z,43.20
2019-05-29T18:26:54.742Z,43.30
2019-05-29T18:29:24.398Z,43.80
2019-05-29T18:31:53.221Z,45.00
2019-05-29T18:34:22.788Z,44.90
2019-05-29T18:36:51.398Z,46.30
2019-05-29T18:39:20.174Z,46.30
2019-05-29T18:41:48.965Z,46.10
2019-05-29T18:44:17.490Z,47.60
2019-05-29T18:46:46.011Z,47.80
2019-05-29T18:49:14.999Z,49.40
2019-05-29T18:51:43.590Z,49.70
2019-05-29T18:54:12.161Z,49.30
2019-05-29T18:56:40.793Z,49.90
2019-05-29T18:59:09.458Z,51.30
2019-05-29T19:01:37.923Z,52.00
2019-05-29T19:07:35.561Z,52.90
2019-05-29T19:10:07.447Z,53.10
2019-05-29T19:12:36.316Z,55.00
2019-05-29T19:15:08.675Z,55.70
2019-05-29T19:17:37.371Z,57.10
2019-05-29T19:20:07.687Z,57.50
2019-05-29T19:25:12.525Z,58.60
2019-05-29T19:27:42.299Z,56.60
2019-05-29T19:30:11.600Z,58.20
2019-05-29T19:36:09.771Z,59.20
2019-05-29T19:38:38.218Z,60.70
2019-05-29T19:41:06.668Z,61.90
2019-05-29T19:43:35.405Z,62.50
2019-05-29T19:46:04.097Z,63.30
2019-05-29T19:48:33.050Z,63.90
2019-05-29T19:51:01.863Z,64.30
2019-05-29T19:53:31.375Z,65.80
2019-05-29T19:56:00.164Z,66.40
2019-05-29T19:58:29.781Z,67.10
2019-05-29T20:00:58.343Z,68.80
2019-05-29T20:03:26.927Z,70.10
2019-05-29T20:05:56.324Z,71.50
2019-05-29T20:08:24.767Z,73.70
2019-05-29T20:10:53.246Z,75.10
2019-05-29T20:13:21.690Z,76.80
2019-05-29T20:15:50.180Z,77.90
2019-05-29T20:18:18.623Z,78.40
2019-05-29T20:20:47.134Z,80.40
2019-05-29T20:23:15.583Z,82.10
2019-05-29T20:25:44.035Z,83.40
2019-05-29T20:28:12.514Z,84.70
2019-05-29T20:30:40.976Z,86.80
2019-05-29T20:33:09.650Z,88.50
2019-05-29T20:35:39.155Z,89.70
2019-05-29T20:38:07.723Z,90.30
2019-05-29T20:40:37.207Z,90.70
2019-05-29T20:43:05.994Z,91.00
2019-05-29T20:45:35.517Z,91.00
2019-05-29T20:48:04.248Z,91.40
2019-05-29T20:50:32.857Z,91.90
2019-05-29T20:53:01.424Z,92.00
2019-05-29T20:55:29.870Z,92.30
2019-05-29T20:57:58.320Z,92.50
2019-05-29T21:00:26.812Z,92.70
2019-05-29T21:02:55.255Z,92.70
2019-05-29T21:05:23.746Z,92.30
2019-05-29T21:07:52.189Z,92.50
2019-05-29T21:10:20.982Z,92.90
2019-05-29T21:12:49.490Z,93.30
2019-05-29T21:15:18.006Z,93.30
2019-05-29T21:17:46.538Z,93.40
2019-05-29T21:20:15.330Z,93.50
2019-05-29T21:22:44.941Z,93.50
2019-05-29T21:25:18.920Z,93.70
2019-05-29T21:27:48.813Z,93.90
2019-05-29T21:30:17.079Z,94.00
2019-05-29T21:32:46.005Z,94.00
2019-05-29T21:35:14.765Z,94.20
2019-05-29T21:37:44.410Z,94.40
2019-05-29T21:40:13.529Z,94.80
2019-05-29T21:42:42.879Z,94.60
2019-05-29T21:45:11.662Z,95.00
2019-05-29T21:47:40.948Z,95.10
2019-05-29T21:50:10.437Z,95.30
2019-05-29T21:52:39.484Z,95.50
2019-05-29T21:55:08.713Z,95.60
2019-05-29T21:57:37.729Z,95.70
2019-05-29T22:00:12.863Z,95.80
2019-05-29T22:02:42.290Z,96.00
2019-05-29T22:05:11.600Z,96.10
2019-05-29T22:07:40.683Z,96.20
2019-05-29T22:10:09.534Z,96.30
2019-05-29T22:12:37.990Z,96.40
2019-05-29T22:15:07.365Z,96.20
2019-05-29T22:17:36.548Z,96.30
2019-05-29T22:20:06.875Z,96.40
2019-05-29T22:22:35.355Z,96.30
2019-05-29T22:25:06.378Z,96.40
2019-05-29T22:27:35.171Z,96.40
2019-05-29T22:30:04.986Z,96.40
2019-05-29T22:32:33.434Z,96.30
2019-05-29T22:35:02.025Z,96.30
2019-05-29T22:37:30.855Z,96.20
2019-05-29T22:39:59.635Z,96.30
2019-05-29T22:42:28.223Z,96.20
2019-05-29T22:44:57.747Z,96.40
2019-05-29T22:47:26.347Z,96.30
2019-05-29T22:49:55.765Z,96.30
2019-05-29T22:52:25.212Z,96.40
2019-05-29T22:54:53.860Z,96.00
2019-05-29T22:57:22.491Z,96.30
2019-05-29T22:59:51.825Z,96.10
2019-05-29T23:02:20.361Z,96.30
2019-05-29T23:04:48.865Z,96.40
2019-05-29T23:07:17.308Z,96.40
2019-05-29T23:09:45.749Z,96.30
2019-05-29T23:12:14.330Z,96.30
2019-05-29T23:14:42.939Z,96.40
2019-05-29T23:17:11.730Z,96.60
2019-05-29T23:19:40.177Z,96.60
2019-05-29T23:22:08.688Z,96.50
2019-05-29T23:24:37.133Z,96.70
2019-05-29T23:27:05.581Z,96.60
2019-05-29T23:29:48.028Z,96.70
2019-05-29T23:32:04.273Z,96.70
2019-05-29T23:34:32.799Z,96.80
2019-05-29T23:37:01.373Z,96.80
2019-05-29T23:39:29.874Z,96.90
2019-05-29T23:41:59.389Z,97.00
2019-05-29T23:44:27.886Z,97.10
2019-05-29T23:46:57.482Z,97.20
2019-05-29T23:49:26.280Z,97.30
2019-05-29T23:51:55.452Z,97.40
2019-05-29T23:54:24.050Z,97.50
2019-05-29T23:56:53.702Z,97.50
2019-05-29T23:59:22.382Z,97.50
